Time;durP1;ratioP1;P1;durP2;ratioP2;P2;SDS_P1;SDS_P2;PMS_P1;PMS_P2;Temp;Humidity;BMP_temperature;BMP_pressure;BME280_temperature;BME280_humidity;BME280_pressure;Samples;Min_cycle;Max_cycle;Signal;HPM_P1;HPM_P2
2021/01/30 00:00:11;;;;;;;8.70;6.28;;;;;;;23.42;34.33;93308.47;4933864;28;20485;-71
2021/01/30 00:02:36;;;;;;;9.18;6.13;;;;;;;23.39;34.06;93310.31;4933280;29;20043;-70
2021/01/30 00:05:02;;;;;;;8.15;6.40;;;;;;;23.38;34.03;93308.13;4932329;29;20068;-71
2021/01/30 00:07:27;;;;;;;8.20;6.05;;;;;;;23.36;34.03;93307.94;4932275;28;20082;-71
2021/01/30 00:09:53;;;;;;;8.63;5.70;;;;;;;23.36;34.35;93302.50;4933733;29;20043;-71
2021/01/30 00:12:19;;;;;;;7.50;5.97;;;;;;;23.33;34.31;93306.31;4933500;29;20049;-71
2021/01/30 00:14:44;;;;;;;8.50;5.93;;;;;;;23.23;34.43;93291.84;4933384;29;20028;-71
2021/01/30 00:17:10;;;;;;;8.13;6.05;;;;;;;23.31;34.47;93308.88;4933186;29;20051;-71
2021/01/30 00:19:36;;;;;;;9.10;5.93;;;;;;;23.29;34.59;93316.88;4933322;29;20030;-71
2021/01/30 00:22:04;;;;;;;7.47;5.72;;;;;;;23.25;34.28;93308.34;4933676;29;20027;-71
2021/01/30 00:24:30;;;;;;;8.63;5.82;;;;;;;23.22;34.40;93290.38;4933486;29;20464;-71
2021/01/30 00:27:00;;;;;;;9.00;5.72;;;;;;;23.25;34.16;93289.28;4933073;29;20036;-71
2021/01/30 00:29:27;;;;;;;8.75;5.95;;;;;;;23.23;34.29;93291.84;4933273;29;20036;-71
2021/01/30 00:31:52;;;;;;;8.25;5.82;;;;;;;23.22;34.57;93284.94;4931898;29;20095;-71
2021/01/30 00:34:19;;;;;;;7.38;5.57;;;;;;;23.16;34.52;93270.78;4932842;29;20036;-71
2021/01/30 00:36:45;;;;;;;7.22;5.10;;;;;;;23.20;34.32;93276.59;4931730;29;20028;-71
2021/01/30 00:39:10;;;;;;;8.30;5.80;;;;;;;23.17;34.63;93260.59;4933093;29;20032;-71
2021/01/30 00:41:36;;;;;;;7.50;5.43;;;;;;;23.12;34.67;93259.56;4932869;29;20042;-71
2021/01/30 00:44:02;;;;;;;8.20;5.90;;;;;;;23.12;34.37;93254.13;4932904;28;20427;-71
2021/01/30 00:46:27;;;;;;;8.45;5.80;;;;;;;23.08;34.49;93248.31;4932852;29;20032;-71
2021/01/30 00:48:53;;;;;;;6.97;5.30;;;;;;;23.08;34.58;93236.69;4932636;29;20412;-71
2021/01/30 00:51:22;;;;;;;8.52;5.88;;;;;;;23.08;34.49;93231.97;4932701;29;20031;-71
2021/01/30 00:53:47;;;;;;;8.65;6.18;;;;;;;23.08;34.69;93239.44;4932642;29;20038;-71
2021/01/30 00:56:13;;;;;;;7.20;5.57;;;;;;;23.02;34.56;93222.56;4932657;29;20032;-71
2021/01/30 00:58:39;;;;;;;9.13;5.82;;;;;;;23.10;34.48;93229.41;4932896;29;20047;-71
2021/01/30 01:01:05;;;;;;;8.02;5.43;;;;;;;23.01;34.55;93204.78;4932229;29;20028;-71
2021/01/30 01:03:30;;;;;;;7.43;5.38;;;;;;;23.09;34.41;93205.47;4932639;29;20059;-70
2021/01/30 01:05:55;;;;;;;7.38;5.88;;;;;;;23.05;34.84;93205.84;4932418;29;20032;-71
2021/01/30 01:08:21;;;;;;;7.57;5.20;;;;;;;23.03;34.88;93202.97;4932376;29;20469;-71
2021/01/30 01:10:46;;;;;;;6.55;5.38;;;;;;;23.04;34.84;93207.13;4932387;29;20043;-71
2021/01/30 01:13:12;;;;;;;7.35;5.40;;;;;;;23.04;34.73;93188.06;4932360;29;20028;-71
2021/01/30 01:15:37;;;;;;;7.47;5.22;;;;;;;23.03;34.72;93186.63;4931229;29;20055;-72
2021/01/30 01:18:03;;;;;;;6.97;5.55;;;;;;;23.02;34.71;93185.16;4931863;29;20031;-71
2021/01/30 01:20:28;;;;;;;7.18;5.28;;;;;;;23.02;34.71;93179.72;4932501;29;20516;-72
2021/01/30 01:22:54;;;;;;;7.45;5.63;;;;;;;22.98;34.71;93181.38;4932021;29;20024;-72
2021/01/30 01:25:20;;;;;;;6.78;5.03;;;;;;;22.94;34.81;93179.03;4932209;29;20027;-71
2021/01/30 01:27:46;;;;;;;7.85;5.53;;;;;;;22.94;34.93;93168.16;4930754;29;20039;-71
2021/01/30 01:30:12;;;;;;;7.55;5.53;;;;;;;22.90;34.40;93162.31;4932184;29;20552;-72
2021/01/30 01:32:37;;;;;;;8.07;5.30;;;;;;;22.96;34.81;93165.59;4932137;29;20082;-72
2021/01/30 01:35:03;;;;;;;7.32;5.20;;;;;;;22.96;34.74;93151.97;4932039;29;20028;-72
2021/01/30 01:37:29;;;;;;;7.78;5.47;;;;;;;22.95;34.71;93158.69;4932338;29;20075;-71
2021/01/30 01:39:54;;;;;;;7.72;5.65;;;;;;;22.91;34.60;93142.00;4931764;29;20039;-72
2021/01/30 01:42:22;;;;;;;7.75;5.75;;;;;;;22.94;34.76;93135.47;4932112;29;20485;-72
2021/01/30 01:44:47;;;;;;;7.15;5.25;;;;;;;22.93;34.99;93144.16;4931673;29;20039;-71
2021/01/30 01:47:20;;;;;;;6.85;5.00;;;;;;;22.90;34.99;93131.66;4931750;29;20039;-72
2021/01/30 01:49:46;;;;;;;7.80;5.60;;;;;;;22.78;34.79;93111.56;4930817;29;20047;-71
2021/01/30 01:52:30;;;;;;;7.07;4.97;;;;;;;22.85;34.80;93115.53;4930825;29;20614;-71
2021/01/30 01:55:03;;;;;;;7.03;4.85;;;;;;;22.72;34.78;93081.13;4915045;29;20119;-71
2021/01/30 01:57:28;;;;;;;6.82;5.20;;;;;;;22.86;34.98;93106.81;4930873;29;20032;-71
2021/01/30 01:59:54;;;;;;;8.23;5.55;;;;;;;22.88;34.79;93092.66;4932060;29;20390;-71
2021/01/30 02:02:20;;;;;;;7.97;5.47;;;;;;;22.88;35.06;93098.81;4931524;29;20482;-71
2021/01/30 02:04:48;;;;;;;6.90;5.53;;;;;;;22.86;35.04;93095.22;4930504;29;20063;-71
2021/01/30 02:07:14;;;;;;;7.47;5.22;;;;;;;22.86;34.89;93089.78;4930256;29;20043;-71
2021/01/30 02:09:39;;;;;;;7.55;5.20;;;;;;;22.86;34.65;93084.31;4930354;29;20417;-72
2021/01/30 02:12:09;;;;;;;8.25;5.40;;;;;;;22.84;35.07;93082.16;4931721;29;20408;-71
2021/01/30 02:14:36;;;;;;;;;;;;;;;22.81;34.87;93071.63;4931933;29;20080;-71
2021/01/30 02:17:22;;;;;;;8.73;6.18;;;;;;;22.83;34.74;93074.53;4930733;29;20001;-71
2021/01/30 02:20:27;;;;;;;7.95;5.82;;;;;;;22.82;35.12;93073.09;4930600;29;20031;-72
2021/01/30 02:23:04;;;;;;;7.63;5.32;;;;;;;22.83;35.05;93074.53;4930420;29;20203;-71
2021/01/30 02:26:07;;;;;;;7.60;5.15;;;;;;;22.84;35.01;93075.97;4931707;29;20027;-71
2021/01/30 02:28:38;;;;;;;6.95;5.05;;;;;;;22.83;34.85;93063.66;4921064;29;20059;-71
2021/01/30 02:31:28;;;;;;;7.68;5.00;;;;;;;22.84;34.75;93059.66;4934302;29;20038;-71
2021/01/30 02:34:23;;;;;;;6.20;4.78;;;;;;;22.78;34.76;93062.59;4934877;29;20175;-71
2021/01/30 02:36:54;;;;;;;6.70;4.70;;;;;;;22.76;34.89;93070.56;4934076;29;20016;-72
2021/01/30 02:39:25;;;;;;;6.97;5.53;;;;;;;22.76;34.94;93070.56;4935240;29;20058;-71
2021/01/30 02:42:18;;;;;;;6.75;5.22;;;;;;;22.75;34.92;93074.59;4935156;29;20028;-71
2021/01/30 02:44:47;;;;;;;6.97;4.97;;;;;;;22.78;34.82;93078.91;4933793;29;20505;-71
2021/01/30 02:47:13;;;;;;;6.18;4.90;;;;;;;22.69;35.05;93065.16;4933771;29;20555;-72
2021/01/30 02:49:40;;;;;;;6.63;4.97;;;;;;;22.77;34.78;93082.91;4933751;29;20111;-72
2021/01/30 02:52:10;;;;;;;7.78;5.30;;;;;;;22.78;34.85;93075.47;4920314;29;20087;-72
2021/01/30 02:54:37;;;;;;;7.20;5.45;;;;;;;22.70;34.92;93066.63;4880615;29;20040;-71
2021/01/30 02:57:07;;;;;;;6.93;4.90;;;;;;;22.78;34.86;93083.63;4895701;29;20032;-71
2021/01/30 02:59:33;;;;;;;7.68;5.25;;;;;;;22.78;34.95;93083.63;4895884;29;20127;-71
2021/01/30 03:01:58;;;;;;;6.75;5.00;;;;;;;22.72;35.09;93080.38;4897007;29;20028;-71
2021/01/30 03:04:25;;;;;;;6.80;5.15;;;;;;;22.74;35.00;93083.28;4897042;29;20060;-72
2021/01/30 03:07:00;;;;;;;6.57;4.95;;;;;;;22.75;34.89;93095.59;4895807;29;20522;-71
2021/01/30 03:09:34;;;;;;;6.47;4.78;;;;;;;22.76;35.06;93091.63;4896968;29;20434;-71
2021/01/30 03:12:23;;;;;;;8.70;5.07;;;;;;;22.73;35.12;93093.44;4927298;29;20122;-71
2021/01/30 03:14:52;;;;;;;7.40;5.20;;;;;;;22.77;34.80;93103.97;4919223;29;20034;-71
2021/01/30 03:17:18;;;;;;;6.25;4.72;;;;;;;22.76;35.05;93102.50;4933153;29;20031;-71
2021/01/30 03:19:43;;;;;;;6.80;5.07;;;;;;;22.74;34.95;93099.63;4934606;29;20027;-71
2021/01/30 03:22:11;;;;;;;7.88;5.35;;;;;;;22.75;35.01;93095.59;4933243;29;20019;-71
2021/01/30 03:24:45;;;;;;;6.68;4.85;;;;;;;22.75;34.87;93095.59;4932896;29;20074;-71
2021/01/30 03:27:17;;;;;;;7.03;5.07;;;;;;;22.71;34.94;93093.28;4932915;29;20023;-72
2021/01/30 03:29:43;;;;;;;6.68;4.82;;;;;;;22.68;34.97;93090.94;4933407;29;20418;-71
2021/01/30 03:32:08;;;;;;;7.55;5.00;;;;;;;22.73;34.92;93092.72;4934197;29;20024;-71
2021/01/30 03:34:34;;;;;;;7.45;5.03;;;;;;;22.73;35.16;93103.59;4934038;29;20032;-71
2021/01/30 03:36:59;;;;;;;7.60;5.22;;;;;;;22.72;35.01;93102.88;4934382;29;20493;-71
2021/01/30 03:39:25;;;;;;;6.57;4.82;;;;;;;22.72;35.20;93102.16;4933912;29;20032;-71
2021/01/30 03:41:50;;;;;;;6.38;4.75;;;;;;;22.63;35.03;93110.88;4933639;29;20497;-72
2021/01/30 03:44:16;;;;;;;6.93;5.10;;;;;;;22.61;34.81;93105.28;4933822;29;20500;-72
2021/01/30 03:46:41;;;;;;;7.93;5.43;;;;;;;22.69;35.00;93114.13;4932497;29;20494;-71
2021/01/30 03:49:07;;;;;;;6.88;4.72;;;;;;;22.70;35.06;93118.31;4932679;29;20035;-71
2021/01/30 03:51:33;;;;;;;6.68;5.07;;;;;;;22.67;34.84;93111.25;4933968;29;20042;-71
2021/01/30 03:53:58;;;;;;;7.45;5.18;;;;;;;22.65;34.97;93113.81;4932683;29;20038;-72
2021/01/30 03:56:23;;;;;;;7.20;5.65;;;;;;;22.70;34.86;93116.31;4932481;29;20028;-71
2021/01/30 03:58:49;;;;;;;6.25;4.88;;;;;;;22.70;34.84;93115.59;4933518;29;20020;-71
2021/01/30 04:01:14;;;;;;;7.43;5.25;;;;;;;22.69;35.22;93116.84;4933538;29;20529;-71
2021/01/30 04:03:40;;;;;;;6.38;5.10;;;;;;;22.68;35.06;93113.41;4933672;29;20071;-72
2021/01/30 04:06:11;;;;;;;7.63;5.43;;;;;;;22.69;35.21;93116.84;4933693;29;20040;-71
2021/01/30 04:08:36;;;;;;;6.95;4.88;;;;;;;22.67;35.20;93122.84;4932022;29;20573;-70
2021/01/30 04:11:01;;;;;;;8.18;5.45;;;;;;;22.64;35.05;93117.78;4933666;29;20027;-71
2021/01/30 04:13:27;;;;;;;7.88;5.72;;;;;;;22.64;35.04;93117.78;4933308;29;20035;-71
2021/01/30 04:15:52;;;;;;;8.43;5.93;;;;;;;22.67;35.08;93113.97;4933413;29;20036;-71
2021/01/30 04:18:18;;;;;;;7.30;5.45;;;;;;;22.66;35.13;93107.81;4933418;28;20124;-71
2021/01/30 04:20:43;;;;;;;6.38;4.97;;;;;;;22.58;35.09;93098.22;4933302;29;20440;-71
2021/01/30 04:23:09;;;;;;;7.03;5.43;;;;;;;22.66;35.20;93109.78;4933320;29;20508;-72
2021/01/30 04:25:34;;;;;;;6.97;5.20;;;;;;;22.65;35.14;93102.91;4933263;29;20054;-72
2021/01/30 04:28:00;;;;;;;7.07;5.07;;;;;;;22.64;35.11;93104.19;4933320;29;20424;-72
2021/01/30 04:30:26;;;;;;;7.28;5.40;;;;;;;22.62;35.13;93095.84;4933333;29;20027;-71
2021/01/30 04:32:52;;;;;;;6.70;5.22;;;;;;;22.62;35.02;93104.03;4933021;29;20679;-70
2021/01/30 04:35:20;;;;;;;6.88;5.30;;;;;;;22.62;35.05;93098.56;4932851;29;20039;-71
2021/01/30 04:37:45;;;;;;;7.97;5.20;;;;;;;22.63;35.04;93105.44;4932988;29;20019;-71
2021/01/30 04:40:21;;;;;;;8.20;5.85;;;;;;;22.62;34.96;93104.72;4933197;29;20120;-71
2021/01/30 04:43:08;;;;;;;8.15;5.70;;;;;;;22.63;35.14;93106.19;4931745;29;20059;-72
2021/01/30 04:45:40;;;;;;;6.72;5.25;;;;;;;22.59;35.36;93105.13;4931347;29;20480;-71
2021/01/30 04:48:27;;;;;;;7.43;5.20;;;;;;;22.59;35.12;93105.13;4931536;29;20031;-71
2021/01/30 04:50:56;;;;;;;8.50;5.72;;;;;;;22.60;34.95;93117.44;4932638;29;20130;-72
2021/01/30 04:53:52;;;;;;;8.43;6.00;;;;;;;22.61;35.20;93113.44;4930866;29;20031;-71
2021/01/30 04:56:27;;;;;;;9.05;5.90;;;;;;;22.60;34.90;93117.44;4932746;29;20031;-71
2021/01/30 04:59:19;;;;;;;9.52;6.00;;;;;;;22.63;35.18;93110.88;4931524;29;20030;-72
2021/01/30 05:01:48;;;;;;;8.45;5.85;;;;;;;22.64;34.79;93128.66;4931516;29;20086;-71
2021/01/30 05:04:21;;;;;;;7.20;5.22;;;;;;;22.63;34.98;93127.22;4931175;29;20051;-72
2021/01/30 05:07:11;;;;;;;7.85;5.25;;;;;;;22.65;35.12;93135.56;4931142;29;20032;-71
2021/01/30 05:09:39;;;;;;;7.47;5.60;;;;;;;22.66;35.15;93132.31;4931021;29;20039;-71
2021/01/30 05:12:15;;;;;;;9.63;6.00;;;;;;;22.52;35.21;93122.91;4931271;29;20066;-71
2021/01/30 05:14:53;;;;;;;7.70;5.93;;;;;;;22.65;35.14;93133.56;4931346;29;20121;-71
2021/01/30 05:17:27;;;;;;;8.07;6.03;;;;;;;22.65;35.06;93151.91;4931243;29;20028;-72
2021/01/30 05:20:00;;;;;;;7.97;5.60;;;;;;;22.52;34.96;93143.94;4931249;29;20582;-71
2021/01/30 05:22:33;;;;;;;8.57;6.32;;;;;;;22.60;35.14;93150.06;4931236;29;20094;-71
2021/01/30 05:24:58;;;;;;;7.93;6.10;;;;;;;22.49;35.39;93140.31;4925646;29;20024;-73
2021/01/30 05:27:42;;;;;;;7.90;5.70;;;;;;;22.61;35.17;93162.41;4911817;29;20091;-72
2021/01/30 05:30:34;;;;;;;10.55;5.78;;;;;;;22.67;34.87;93163.66;4912740;29;20123;-74
2021/01/30 05:33:20;;;;;;;8.27;5.82;;;;;;;22.66;35.06;93170.38;4870393;29;20051;-74
2021/01/30 05:36:12;;;;;;;7.63;5.82;;;;;;;22.58;35.38;93163.50;4925822;29;20039;-72
2021/01/30 05:39:19;;;;;;;8.35;5.85;;;;;;;22.52;35.86;93168.41;4930822;29;20038;-71
2021/01/30 05:42:25;;;;;;;8.60;5.85;;;;;;;22.45;35.73;93172.63;4931810;29;20036;-73
2021/01/30 05:44:59;;;;;;;7.65;5.40;;;;;;;22.45;36.09;93172.63;4930230;28;20037;-71
2021/01/30 05:47:27;;;;;;;8.65;6.93;;;;;;;22.45;35.97;93177.31;4929919;29;20035;-71
2021/01/30 05:49:59;;;;;;;9.05;6.05;;;;;;;22.45;35.87;93178.06;4930924;29;20035;-71
2021/01/30 05:52:28;;;;;;;9.27;6.50;;;;;;;22.52;35.87;93182.03;4931360;29;20027;-71
2021/01/30 05:54:53;;;;;;;8.52;6.13;;;;;;;22.53;35.92;93183.47;4919480;29;20484;-71
2021/01/30 05:57:19;;;;;;;8.23;5.95;;;;;;;22.58;35.00;93186.00;4935263;29;20027;-74
2021/01/30 05:59:54;;;;;;;8.77;6.80;;;;;;;22.64;35.41;93193.97;4936993;29;20500;-70
2021/01/30 06:02:22;;;;;;;9.57;6.32;;;;;;;22.67;35.45;93203.75;4934006;29;20512;-70
2021/01/30 06:04:48;;;;;;;10.10;6.55;;;;;;;22.70;35.33;93208.09;4925956;29;20055;-72
2021/01/30 06:07:22;;;;;;;8.52;6.70;;;;;;;22.72;35.17;93211.00;4919083;29;20421;-70
2021/01/30 06:09:48;;;;;;;8.05;6.10;;;;;;;22.74;35.63;93219.34;4932302;29;20040;-70
2021/01/30 06:12:20;;;;;;;8.25;6.43;;;;;;;22.75;35.26;93231.66;4931692;29;20028;-71
2021/01/30 06:14:45;;;;;;;8.45;6.53;;;;;;;22.75;35.48;93228.94;4930561;29;20031;-72
2021/01/30 06:17:15;;;;;;;9.18;6.22;;;;;;;22.73;35.30;93240.38;4930347;29;20034;-72
2021/01/30 06:19:40;;;;;;;7.80;6.60;;;;;;;22.70;35.66;93246.19;4930155;29;20079;-72
2021/01/30 06:22:12;;;;;;;9.60;6.22;;;;;;;22.69;35.59;93250.19;4928991;29;20027;-72
2021/01/30 06:24:44;;;;;;;8.57;5.88;;;;;;;22.74;35.45;93252.00;4931024;29;20027;-76
2021/01/30 06:27:12;;;;;;;7.65;5.57;;;;;;;22.75;35.33;93258.88;4929664;29;20123;-76
2021/01/30 06:29:46;;;;;;;8.65;6.15;;;;;;;22.78;35.20;93265.94;4915730;29;20054;-82
2021/01/30 06:32:27;;;;;;;9.95;6.55;;;;;;;22.79;35.47;93261.97;4930839;29;20028;-72
2021/01/30 06:35:07;;;;;;;7.70;5.72;;;;;;;22.79;35.43;93264.69;4929426;29;20138;-75
2021/01/30 06:37:34;;;;;;;8.75;6.25;;;;;;;22.79;35.42;93272.84;4930776;29;20551;-74
2021/01/30 06:40:31;;;;;;;7.80;5.88;;;;;;;22.81;35.36;93273.00;4929310;29;20032;-75
2021/01/30 06:43:18;;;;;;;7.97;5.75;;;;;;;22.82;35.43;93279.91;4927609;29;20027;-75
2021/01/30 06:45:44;;;;;;;7.88;6.05;;;;;;;22.81;35.54;93278.47;4944525;29;20086;-74
2021/01/30 06:48:27;;;;;;;8.98;6.38;;;;;;;22.78;35.83;93282.28;4929721;29;20098;-75
2021/01/30 06:50:53;;;;;;;7.78;6.68;;;;;;;22.70;35.42;93270.69;4931039;29;20046;-75
2021/01/30 06:53:27;;;;;;;8.18;6.22;;;;;;;22.81;35.51;93283.91;4929610;29;20035;-74
2021/01/30 06:55:52;;;;;;;8.40;6.50;;;;;;;22.80;35.48;93288.63;4931539;29;20151;-74
2021/01/30 06:58:32;;;;;;;9.32;6.85;;;;;;;22.81;35.28;93294.78;4931455;29;20023;-74
2021/01/30 07:01:22;;;;;;;8.48;6.63;;;;;;;22.76;35.18;93293.00;4929758;29;20083;-75
2021/01/30 07:04:09;;;;;;;8.13;6.07;;;;;;;22.82;35.36;93288.78;4914946;29;20136;-75
2021/01/30 07:07:05;;;;;;;7.68;5.57;;;;;;;22.85;35.54;93295.16;4929874;29;20056;-74
2021/01/30 07:09:46;;;;;;;9.10;6.28;;;;;;;22.86;35.83;93296.63;4929680;29;20099;-73
2021/01/30 07:12:13;;;;;;;9.15;6.40;;;;;;;22.79;35.67;93300.06;4929290;29;20040;-75
2021/01/30 07:15:01;;;;;;;8.18;6.20;;;;;;;22.73;35.74;93299.53;4944138;29;20027;-74
2021/01/30 07:17:35;;;;;;;8.82;6.45;;;;;;;22.68;35.86;93303.16;4933794;29;20031;-75
2021/01/30 07:20:18;;;;;;;8.40;6.07;;;;;;;22.66;36.10;93311.13;4934737;28;20036;-76
2021/01/30 07:22:57;;;;;;;7.63;5.97;;;;;;;22.70;36.29;93316.94;4933634;28;20047;-76
2021/01/30 07:25:32;;;;;;;7.13;5.90;;;;;;;22.66;35.83;93305.69;4947376;29;20058;-72
2021/01/30 07:28:03;;;;;;;8.63;6.25;;;;;;;22.83;35.88;93314.03;4948132;29;20020;-74
2021/01/30 07:30:37;;;;;;;8.95;6.28;;;;;;;22.81;35.31;93300.22;4932347;29;20027;-71
2021/01/30 07:33:10;;;;;;;7.63;5.60;;;;;;;23.04;35.33;93335.06;4948252;29;20028;-72
2021/01/30 07:35:39;;;;;;;9.00;6.13;;;;;;;23.16;35.42;93330.69;4932564;29;20030;-74
2021/01/30 07:38:06;;;;;;;7.85;5.95;;;;;;;23.24;34.68;93331.38;4916914;29;20027;-72
2021/01/30 07:40:50;;;;;;;9.55;6.03;;;;;;;23.36;34.69;93337.91;4932579;29;20040;-71
2021/01/30 07:43:26;;;;;;;7.60;5.85;;;;;;;23.39;34.74;93336.81;4933114;29;20465;-72
2021/01/30 07:46:04;;;;;;;8.45;6.20;;;;;;;23.55;35.05;93360.00;4933196;29;20113;-72
2021/01/30 07:49:00;;;;;;;7.72;5.80;;;;;;;23.61;34.70;93353.06;4933526;29;20034;-73
2021/01/30 07:51:47;;;;;;;8.52;6.13;;;;;;;23.69;34.59;93347.63;4918476;29;20532;-71
2021/01/30 07:54:15;;;;;;;9.35;5.70;;;;;;;23.75;35.11;93345.44;4933129;29;20555;-71
2021/01/30 07:56:49;;;;;;;8.57;5.88;;;;;;;23.80;34.83;93353.41;4932756;29;20036;-72
2021/01/30 07:59:26;;;;;;;9.57;5.40;;;;;;;23.90;35.34;93351.53;4947548;29;20031;-71
2021/01/30 08:01:52;;;;;;;8.32;6.35;;;;;;;23.95;34.88;93354.06;4932121;29;20042;-72
2021/01/30 08:04:43;;;;;;;10.80;5.82;;;;;;;23.98;34.65;93352.97;4933030;29;20056;-73
2021/01/30 08:07:24;;;;;;;9.13;5.95;;;;;;;24.13;34.78;93369.25;4923730;29;20034;-74
2021/01/30 08:10:03;;;;;;;8.40;5.95;;;;;;;24.17;34.53;93358.69;4917635;29;20119;-74
2021/01/30 08:12:47;;;;;;;9.57;6.50;;;;;;;24.25;34.07;93375.00;4927140;29;20465;-73
2021/01/30 08:15:17;;;;;;;8.55;5.72;;;;;;;24.33;34.59;93381.88;4931737;29;20039;-73
2021/01/30 08:18:01;;;;;;;8.82;5.85;;;;;;;24.35;34.06;93379.34;4916089;29;20015;-72
2021/01/30 08:20:37;;;;;;;8.00;5.22;;;;;;;24.37;34.28;93387.69;4925081;29;20394;-72
2021/01/30 08:23:07;;;;;;;9.60;5.63;;;;;;;24.25;34.16;93364.81;4931638;29;20024;-73
2021/01/30 08:25:38;;;;;;;8.45;5.07;;;;;;;24.46;34.00;93395.28;4916352;29;20779;-72
2021/01/30 08:28:16;;;;;;;6.85;5.40;;;;;;;24.52;33.82;93404.69;4932759;29;20486;-72
2021/01/30 08:30:41;;;;;;;8.63;5.80;;;;;;;24.58;33.63;93407.22;4936553;29;20031;-72
2021/01/30 08:33:07;;;;;;;6.78;5.10;;;;;;;24.62;33.45;93413.00;4934899;29;20520;-73
2021/01/30 08:35:38;;;;;;;7.07;5.00;;;;;;;24.66;33.35;93416.06;4950535;29;20038;-72
2021/01/30 08:38:16;;;;;;;7.38;5.22;;;;;;;24.67;33.80;93426.44;4952355;28;20532;-72
2021/01/30 08:41:12;;;;;;;7.40;5.18;;;;;;;24.72;33.72;93427.50;4950691;29;20030;-72
2021/01/30 08:43:48;;;;;;;6.90;5.07;;;;;;;24.66;33.70;93432.47;4949863;29;20035;-72
2021/01/30 08:46:24;;;;;;;10.25;4.97;;;;;;;24.66;33.62;93424.25;4934782;29;20055;-72
2021/01/30 08:49:20;;;;;;;8.38;5.25;;;;;;;24.75;33.01;93437.31;4950664;29;20067;-72
2021/01/30 08:52:06;;;;;;;7.25;5.00;;;;;;;24.72;33.15;93438.44;4950902;29;20179;-73
2021/01/30 08:54:34;;;;;;;7.25;4.68;;;;;;;24.84;33.47;93440.91;4950303;29;20093;-72
2021/01/30 08:57:00;;;;;;;13.38;5.05;;;;;;;24.87;33.48;93442.53;4939844;29;20090;-73
2021/01/30 08:59:42;;;;;;;9.88;5.20;;;;;;;24.94;32.68;93449.91;4948771;29;20110;-74
2021/01/30 09:02:10;;;;;;;10.55;4.57;;;;;;;24.99;32.52;93446.28;4945702;28;20038;-73
2021/01/30 09:04:41;;;;;;;6.50;4.68;;;;;;;24.96;33.15;93452.09;4931149;29;20047;-74
2021/01/30 09:07:07;;;;;;;7.70;5.00;;;;;;;24.96;33.02;93458.28;4929109;29;20059;-75
2021/01/30 09:09:33;;;;;;;7.72;4.65;;;;;;;24.95;32.70;93451.38;4930323;29;20477;-72
2021/01/30 09:12:02;;;;;;;8.65;4.63;;;;;;;24.96;32.99;93458.28;4930897;29;20045;-72
2021/01/30 09:14:27;;;;;;;7.45;4.68;;;;;;;24.99;32.70;93465.41;4930805;29;20031;-75
2021/01/30 09:17:05;;;;;;;7.70;4.82;;;;;;;25.03;32.99;93463.00;4929220;29;20039;-73
2021/01/30 09:19:58;;;;;;;6.53;4.28;;;;;;;25.02;33.18;93461.56;4931813;29;20050;-72
2021/01/30 09:22:35;;;;;;;6.78;4.75;;;;;;;25.07;33.04;93468.81;4931906;29;20032;-72
2021/01/30 09:25:07;;;;;;;8.05;4.93;;;;;;;25.05;32.97;93474.09;4930252;29;20036;-72
2021/01/30 09:27:34;;;;;;;6.47;4.38;;;;;;;25.09;32.76;93470.97;4931534;29;20070;-72
2021/01/30 09:30:27;;;;;;;6.50;4.50;;;;;;;25.12;32.72;93475.31;4930625;29;20035;-72
2021/01/30 09:32:52;;;;;;;8.25;4.47;;;;;;;25.11;32.71;93484.78;4933974;29;20395;-72
2021/01/30 09:35:21;;;;;;;5.75;4.40;;;;;;;25.09;32.87;93479.16;4951040;28;20019;-72
2021/01/30 09:37:47;;;;;;;7.45;4.28;;;;;;;25.12;32.65;93476.03;4950165;29;20046;-73
2021/01/30 09:40:27;;;;;;;6.55;4.40;;;;;;;25.04;32.44;93463.72;4950377;28;20511;-73
2021/01/30 09:43:01;;;;;;;6.65;4.35;;;;;;;25.22;32.47;93468.69;4949976;29;20106;-72
2021/01/30 09:45:26;;;;;;;7.88;4.30;;;;;;;25.25;32.29;93461.41;4949693;29;20125;-73
2021/01/30 09:47:52;;;;;;;5.97;4.53;;;;;;;25.30;32.26;93458.41;4945803;28;20118;-74
2021/01/30 09:50:26;;;;;;;6.88;4.22;;;;;;;25.32;32.57;93456.59;4931559;29;20420;-75
2021/01/30 09:52:55;;;;;;;7.32;4.43;;;;;;;25.26;32.19;93452.63;4915598;29;20019;-75
2021/01/30 09:55:21;;;;;;;5.75;3.90;;;;;;;25.36;32.19;93467.13;4826269;29;20094;-72
2021/01/30 09:57:46;;;;;;;5.72;4.18;;;;;;;25.34;32.46;93464.22;4943826;29;20035;-73
2021/01/30 10:00:14;;;;;;;5.88;3.72;;;;;;;25.34;32.34;93453.28;4948924;28;20074;-72
2021/01/30 10:02:40;;;;;;;5.88;3.95;;;;;;;25.38;32.26;93443.41;4950172;28;20163;-73
2021/01/30 10:05:10;;;;;;;5.82;3.92;;;;;;;25.43;32.16;93449.94;4949602;28;20054;-73
2021/01/30 10:07:35;;;;;;;5.60;3.60;;;;;;;25.38;32.50;93453.59;4950548;28;20093;-74
2021/01/30 10:10:01;;;;;;;6.18;4.05;;;;;;;25.44;31.97;93445.91;4949576;28;20027;-74
2021/01/30 10:12:31;;;;;;;5.72;3.78;;;;;;;25.44;32.55;93451.38;4950710;28;20461;-73
2021/01/30 10:14:57;;;;;;;;;;;;;;;25.41;32.29;93452.50;4946735;28;20039;-72
2021/01/30 10:17:33;;;;;;;5.35;3.65;;;;;;;25.39;32.02;93438.66;4946769;28;19925;-72
2021/01/30 10:20:05;;;;;;;5.82;3.85;;;;;;;25.44;31.96;93448.63;4967970;28;20030;-75
2021/01/30 10:22:36;;;;;;;5.15;3.83;;;;;;;25.44;31.98;93456.84;4948685;29;20070;-70
2021/01/30 10:25:05;;;;;;;5.30;3.22;;;;;;;25.39;32.26;93449.59;4949761;28;20035;-70
2021/01/30 10:27:31;;;;;;;5.53;3.90;;;;;;;25.30;32.33;93452.94;4950424;29;20027;-73
2021/01/30 10:29:57;;;;;;;5.95;3.70;;;;;;;25.23;32.46;93442.81;4949291;28;20534;-76
2021/01/30 10:32:51;;;;;;;4.90;3.65;;;;;;;25.35;32.62;93460.19;4950604;28;20019;-72
2021/01/30 10:35:33;;;;;;;5.70;3.40;;;;;;;25.37;32.07;93463.09;4968276;28;20027;-72
2021/01/30 10:38:02;;;;;;;5.63;3.92;;;;;;;25.30;32.30;93461.16;4968541;28;20023;-72
2021/01/30 10:40:42;;;;;;;5.25;3.53;;;;;;;25.25;32.27;93462.09;4969508;28;20039;-72
2021/01/30 10:43:21;;;;;;;7.38;3.90;;;;;;;25.18;31.95;93457.41;4969055;28;20514;-73
2021/01/30 10:45:56;;;;;;;5.03;3.45;;;;;;;25.22;32.11;93465.97;4967014;28;20034;-73
2021/01/30 10:48:23;;;;;;;5.22;3.50;;;;;;;25.13;32.48;93461.09;4958746;28;20059;-73
2021/01/30 10:50:49;;;;;;;4.15;3.05;;;;;;;25.27;32.07;93470.47;4969212;28;20022;-73
2021/01/30 10:53:21;;;;;;;4.82;3.40;;;;;;;25.28;31.98;93471.94;4972044;28;20481;-72
2021/01/30 10:55:46;;;;;;;4.93;3.28;;;;;;;25.23;32.30;93469.41;4971447;28;20133;-73
2021/01/30 10:58:24;;;;;;;5.10;3.25;;;;;;;25.28;32.70;93474.66;4936771;29;20520;-73
2021/01/30 11:01:01;;;;;;;9.80;4.68;;;;;;;25.18;31.98;93473.81;4954004;28;20034;-74
2021/01/30 11:03:40;;;;;;;5.30;3.28;;;;;;;25.20;32.38;93493.13;4952850;28;20055;-73
2021/01/30 11:06:23;;;;;;;3.85;3.03;;;;;;;25.20;32.22;93487.66;4953869;28;20035;-73
2021/01/30 11:08:49;;;;;;;5.00;3.15;;;;;;;25.17;32.38;93494.25;4952196;28;20043;-74
2021/01/30 11:11:26;;;;;;;4.65;3.35;;;;;;;25.23;32.50;93470.16;4952000;28;20394;-73
2021/01/30 11:13:51;;;;;;;5.40;3.10;;;;;;;25.30;32.19;93469.34;4952009;28;20031;-73
2021/01/30 11:16:21;;;;;;;4.65;2.83;;;;;;;25.27;32.08;93470.47;4952087;29;20107;-74
2021/01/30 11:18:47;;;;;;;5.35;3.17;;;;;;;25.37;32.00;93474.03;4967759;28;20027;-74
2021/01/30 11:21:15;;;;;;;4.95;3.30;;;;;;;25.42;32.15;93478.53;4953163;28;20036;-74
2021/01/30 11:23:47;;;;;;;4.97;3.08;;;;;;;25.40;31.78;93472.91;4951675;29;20035;-72
2021/01/30 11:26:26;;;;;;;4.60;3.10;;;;;;;25.41;31.75;93482.56;4952793;28;20023;-72
2021/01/30 11:28:51;;;;;;;6.47;3.10;;;;;;;25.47;31.66;93499.44;4949957;29;20425;-71
2021/01/30 11:31:17;;;;;;;5.18;3.25;;;;;;;25.45;31.53;93496.56;4951912;29;20121;-72
2021/01/30 11:33:43;;;;;;;5.35;3.17;;;;;;;25.56;31.69;93512.50;4951404;29;20035;-71
2021/01/30 11:36:10;;;;;;;5.15;3.08;;;;;;;25.50;31.48;93525.66;4953334;28;20038;-73
2021/01/30 11:38:35;;;;;;;3.70;3.00;;;;;;;25.43;31.83;93505.31;4951402;28;20058;-74
2021/01/30 11:41:01;;;;;;;4.10;3.20;;;;;;;25.54;31.91;93515.06;4951519;28;20038;-73
2021/01/30 11:43:27;;;;;;;3.60;2.83;;;;;;;25.55;31.63;93519.97;4935729;29;20034;-72
2021/01/30 11:45:52;;;;;;;5.00;2.88;;;;;;;25.57;31.69;93500.28;4952732;28;20050;-75
2021/01/30 11:48:18;;;;;;;3.95;2.78;;;;;;;25.51;31.63;93488.84;4952149;29;20037;-73
2021/01/30 11:50:44;;;;;;;4.50;2.60;;;;;;;25.59;31.70;93511.38;4951403;29;20030;-71
2021/01/30 11:53:10;;;;;;;6.05;3.67;;;;;;;25.65;31.60;93515.38;4952584;28;20031;-74
2021/01/30 11:55:36;;;;;;;4.32;3.10;;;;;;;25.64;31.57;93513.91;4951837;28;20031;-73